Time;durP1;ratioP1;P1;durP2;ratioP2;P2;SDS_P1;SDS_P2;PMS_P1;PMS_P2;Temp;Humidity;BMP_temperature;BMP_pressure;BME280_temperature;BME280_humidity;BME280_pressure;Samples;Min_cycle;Max_cycle;Signal;HPM_P1;HPM_P2
2022/02/02 00:01:06;;;;;;;18.42;8.68;;;;;;;3.11;89.73;100953.74;1793475;80;21025;-59
2022/02/02 00:03:34;;;;;;;19.90;8.98;;;;;;;3.16;89.94;100965.00;1795031;80;21057;-59
2022/02/02 00:06:12;;;;;;;19.07;9.03;;;;;;;3.18;90.01;100951.55;1795120;80;21566;-59
2022/02/02 00:08:50;;;;;;;19.25;9.25;;;;;;;3.18;89.95;100946.34;1793730;80;21120;-59
2022/02/02 00:18:58;;;;;;;17.52;9.15;;;;;;;3.19;89.96;100924.22;1795321;78;21066;-59
2022/02/02 00:21:28;;;;;;;22.32;8.28;;;;;;;3.18;89.89;100925.52;1794689;80;21595;-59
2022/02/02 00:24:00;;;;;;;18.75;8.45;;;;;;;3.18;89.71;100912.52;1794538;80;21061;-59
2022/02/02 00:26:32;;;;;;;19.97;9.23;;;;;;;3.16;89.75;100909.91;1794367;80;21552;-59
2022/02/02 00:29:04;;;;;;;21.63;9.87;;;;;;;3.17;89.80;100893.86;1794496;80;21042;-59
2022/02/02 00:31:34;;;;;;;19.48;10.50;;;;;;;3.18;89.79;100884.75;1794115;80;21842;-58
2022/02/02 00:34:02;;;;;;;17.67;9.48;;;;;;;3.19;89.78;100869.98;1811985;79;21128;-59
2022/02/02 00:36:36;;;;;;;18.90;8.98;;;;;;;3.20;89.79;100869.98;1822628;78;21140;-58
2022/02/02 00:38:58;;;;;;;17.48;9.20;;;;;;;3.21;89.80;100866.94;1821626;79;21038;-58
2022/02/02 00:41:27;;;;;;;18.37;9.20;;;;;;;3.21;89.85;100869.53;1796641;79;21144;-59
2022/02/02 00:43:59;;;;;;;16.02;8.60;;;;;;;3.23;89.83;100875.62;1795006;80;21120;-58
2022/02/02 00:46:27;;;;;;;21.65;9.50;;;;;;;3.26;89.86;100858.66;1796402;79;21197;-59
2022/02/02 00:49:02;;;;;;;17.40;8.78;;;;;;;3.24;89.71;100855.22;1792747;80;21089;-58
2022/02/02 00:51:45;;;;;;;18.87;8.90;;;;;;;3.24;89.64;100861.27;1792939;80;21638;-59
2022/02/02 00:54:17;;;;;;;19.02;9.38;;;;;;;3.23;89.89;100869.12;1792468;80;21200;-58
2022/02/02 00:56:46;;;;;;;17.77;8.93;;;;;;;3.21;90.41;100858.72;1793992;79;21144;-59
2022/02/02 00:59:15;;;;;;;15.80;8.10;;;;;;;3.25;90.64;100863.02;1792768;80;21070;-59
2022/02/02 01:01:44;;;;;;;20.90;9.70;;;;;;;3.29;90.66;100862.56;1792970;80;21532;-59
2022/02/02 01:04:12;;;;;;;19.30;9.53;;;;;;;3.30;90.53;100856.46;1792954;80;21575;-59
2022/02/02 01:06:50;;;;;;;21.57;9.18;;;;;;;3.32;90.55;100853.44;1792830;80;21255;-59
2022/02/02 01:19:37;;;;;;;19.10;9.65;;;;;;;3.50;91.01;100861.97;1793989;79;21157;-60
2022/02/02 01:22:17;;;;;;;19.27;9.50;;;;;;;3.53;90.84;100855.45;1792448;80;21121;-60
2022/02/02 01:30:12;;;;;;;21.12;10.03;;;;;;;3.46;90.85;100861.98;1794047;79;21054;-60
2022/02/02 01:32:41;;;;;;;25.95;10.10;;;;;;;3.49;91.01;100859.81;1792813;80;21121;-60
2022/02/02 01:35:15;;;;;;;18.42;10.03;;;;;;;3.52;90.95;100857.61;1792775;80;21066;-60
2022/02/02 01:37:40;;;;;;;22.13;9.35;;;;;;;3.53;91.14;100856.75;1791893;80;21047;-61
2022/02/02 01:40:21;;;;;;;19.48;9.55;;;;;;;3.56;91.08;100856.70;1794001;79;21542;-60
2022/02/02 01:42:48;;;;;;;21.00;10.15;;;;;;;3.54;90.93;100858.45;1790950;80;21086;-60
2022/02/02 01:45:18;;;;;;;18.37;9.23;;;;;;;3.54;90.90;100867.56;1791645;80;21038;-60
2022/02/02 01:47:53;;;;;;;19.17;8.75;;;;;;;3.52;91.09;100855.00;1789249;80;21108;-59
2022/02/02 01:50:20;;;;;;;18.17;10.30;;;;;;;3.52;90.87;100852.40;1783549;79;21172;-59
2022/02/02 01:55:29;;;;;;;19.90;9.85;;;;;;;3.52;90.85;100849.80;1757272;82;21196;-60
2022/02/02 02:00:23;;;;;;;20.92;10.28;;;;;;;3.43;90.66;100847.70;1759584;80;21193;-59
2022/02/02 02:02:52;;;;;;;23.38;10.08;;;;;;;3.41;90.78;100852.48;1758423;81;21191;-59
2022/02/02 02:05:21;;;;;;;21.15;10.30;;;;;;;3.42;90.71;100854.22;1758758;81;21112;-59
2022/02/02 02:07:50;;;;;;;19.70;10.35;;;;;;;3.45;90.98;100861.57;1758648;82;21130;-59
2022/02/02 02:10:20;;;;;;;20.97;10.05;;;;;;;3.48;90.94;100858.92;1758617;82;21151;-59
2022/02/02 02:12:57;;;;;;;19.80;10.13;;;;;;;3.47;90.92;100858.52;1782495;80;21076;-59
2022/02/02 02:15:27;;;;;;;21.45;9.70;;;;;;;3.48;90.82;100846.35;1786635;80;21097;-58
2022/02/02 02:17:52;;;;;;;20.82;9.88;;;;;;;3.45;90.57;100839.44;1786712;80;21056;-61
2022/02/02 02:20:22;;;;;;;20.27;10.68;;;;;;;3.43;90.36;100838.59;1787323;80;21057;-60
2022/02/02 02:22:51;;;;;;;22.13;9.08;;;;;;;3.42;90.39;100844.66;1787172;80;21060;-60
2022/02/02 02:25:25;;;;;;;25.43;10.85;;;;;;;3.36;90.48;100842.12;1787401;80;21160;-60
2022/02/02 02:28:04;;;;;;;22.62;10.18;;;;;;;3.34;90.22;100850.80;1786484;80;21230;-60
2022/02/02 02:30:39;;;;;;;24.82;11.35;;;;;;;3.31;90.23;100851.70;1786097;80;21142;-60
2022/02/02 02:38:25;;;;;;;27.13;11.38;;;;;;;3.28;89.96;100794.45;1787298;80;21050;-59
2022/02/02 02:57:13;;;;;;;23.25;10.58;;;;;;;3.16;90.33;100820.59;1795072;80;21037;-59
2022/02/02 03:00:03;;;;;;;22.45;11.03;;;;;;;3.12;90.29;100818.86;1794752;80;21053;-59
2022/02/02 03:13:47;;;;;;;25.45;10.20;;;;;;;3.11;90.45;100815.85;1792033;80;21548;-60
2022/02/02 03:32:59;;;;;;;18.90;8.60;;;;;;;3.98;92.81;100812.90;1738847;81;21129;-60
2022/02/02 03:35:23;;;;;;;13.45;5.53;;;;;;;4.19;93.31;100815.28;1803545;78;21102;-58
2022/02/02 03:51:41;;;;;;;9.45;4.28;;;;;;;5.25;94.35;100812.95;1776464;81;21054;-58
2022/02/02 03:57:23;;;;;;;10.08;5.15;;;;;;;5.51;94.63;100814.28;1776409;81;21036;-57
2022/02/02 03:59:59;;;;;;;17.50;4.42;;;;;;;5.54;94.59;100810.33;1773256;81;21064;-59
2022/02/02 04:07:21;;;;;;;10.70;4.45;;;;;;;5.73;94.81;100798.64;1776279;81;21182;-58
2022/02/02 04:09:48;;;;;;;10.18;4.00;;;;;;;5.77;94.88;100803.37;1776145;80;21020;-61
2022/02/02 04:16:52;;;;;;;12.10;4.42;;;;;;;5.82;94.86;100811.14;1739326;79;21193;-59
2022/02/02 04:37:31;;;;;;;9.00;3.90;;;;;;;5.80;94.87;100834.23;1776486;81;21040;-59
2022/02/02 05:06:55;;;;;;;10.32;4.17;;;;;;;6.56;94.35;100855.90;1762749;81;21142;-59
2022/02/02 05:12:41;;;;;;;10.25;3.95;;;;;;;6.71;94.54;100852.12;1763029;81;21619;-58
2022/02/02 05:25:58;;;;;;;10.48;4.42;;;;;;;6.80;94.27;100837.11;1762530;81;21113;-58
2022/02/02 05:52:14;;;;;;;;;;;;;;;7.16;93.46;100831.50;1797511;80;21525;-59
2022/02/02 05:54:43;;;;;;;11.97;5.37;;;;;;;7.20;92.82;100842.30;1794910;80;20408;-58
2022/02/02 05:57:16;;;;;;;11.10;4.35;;;;;;;7.24;92.02;100841.78;1794906;80;21074;-58
2022/02/02 05:59:45;;;;;;;11.63;4.72;;;;;;;7.29;92.34;100839.47;1795231;80;21477;-58
2022/02/02 06:02:15;;;;;;;7.83;3.42;;;;;;;7.35;91.97;100841.08;1794945;80;21474;-58
2022/02/02 06:04:46;;;;;;;11.05;3.95;;;;;;;7.42;91.53;100839.19;1794816;80;21035;-58
2022/02/02 06:07:16;;;;;;;11.50;3.77;;;;;;;7.48;90.92;100841.64;1795033;80;21031;-58
2022/02/02 06:09:46;;;;;;;8.88;4.40;;;;;;;7.53;90.28;100842.40;1794986;80;21031;-58
2022/02/02 06:12:21;;;;;;;10.50;4.40;;;;;;;7.61;88.21;100844.36;1794922;80;21071;-58
2022/02/02 06:14:51;;;;;;;8.55;3.55;;;;;;;7.69;88.50;100840.23;1794891;80;21537;-58
2022/02/02 06:17:21;;;;;;;8.60;3.70;;;;;;;7.75;89.37;100840.09;1794980;80;21140;-58
2022/02/02 06:19:50;;;;;;;7.15;3.08;;;;;;;7.79;89.47;100843.50;1794979;80;21066;-58
2022/02/02 06:22:20;;;;;;;8.28;4.15;;;;;;;7.78;88.24;100839.14;1794904;80;21038;-58
2022/02/02 06:24:52;;;;;;;8.15;3.95;;;;;;;7.79;87.08;100843.50;1794928;80;21070;-58
2022/02/02 06:27:24;;;;;;;11.88;4.42;;;;;;;7.83;86.63;100848.61;1794897;80;21477;-58
2022/02/02 06:30:10;;;;;;;10.20;4.12;;;;;;;7.88;85.83;100845.42;1794527;79;21133;-58
2022/02/02 06:32:52;;;;;;;8.55;3.52;;;;;;;7.95;85.20;100860.55;1794944;80;21178;-58
2022/02/02 06:35:22;;;;;;;7.78;3.87;;;;;;;8.00;85.55;100853.41;1811657;79;21112;-58
2022/02/02 06:37:51;;;;;;;9.93;5.20;;;;;;;8.02;84.87;100855.99;1824464;79;21038;-59
2022/02/02 06:40:23;;;;;;;12.05;4.60;;;;;;;8.03;84.05;100844.16;1824340;79;21086;-58
2022/02/02 06:42:52;;;;;;;12.80;5.72;;;;;;;8.07;84.56;100856.27;1824507;79;21038;-58
2022/02/02 06:45:21;;;;;;;13.32;4.53;;;;;;;8.10;83.86;100857.52;1824401;79;21149;-58
2022/02/02 06:47:50;;;;;;;9.50;4.22;;;;;;;8.17;83.64;100857.34;1824427;78;21082;-58
2022/02/02 06:50:32;;;;;;;8.98;3.72;;;;;;;8.21;83.16;100852.45;1824305;79;21517;-59
2022/02/02 06:53:17;;;;;;;9.30;3.90;;;;;;;8.22;83.05;100860.25;1822802;78;21062;-58
2022/02/02 06:56:03;;;;;;;8.40;4.25;;;;;;;8.22;83.24;100855.45;1823350;78;21109;-58
2022/02/02 06:58:41;;;;;;;7.92;4.12;;;;;;;8.19;82.73;100847.66;1819897;79;21062;-59
2022/02/02 07:01:27;;;;;;;10.78;4.03;;;;;;;8.19;83.18;100824.05;1823827;78;21604;-58
2022/02/02 07:03:56;;;;;;;10.10;3.90;;;;;;;8.18;83.80;100839.41;1820636;78;21145;-58
2022/02/02 07:06:29;;;;;;;11.05;4.65;;;;;;;8.15;84.08;100832.92;1822383;78;21066;-58
2022/02/02 07:11:53;;;;;;;6.08;2.58;;;;;;;8.05;83.22;100822.68;1824390;79;21493;-58
2022/02/02 07:14:22;;;;;;;7.50;3.35;;;;;;;8.03;83.60;100811.38;1821661;78;21125;-58
2022/02/02 07:17:12;;;;;;;8.83;4.05;;;;;;;7.97;83.82;100823.35;1823167;78;21165;-58
2022/02/02 07:22:17;;;;;;;9.10;3.90;;;;;;;7.91;83.39;100826.12;1824371;79;21085;-58
2022/02/02 07:30:03;;;;;;;6.20;3.30;;;;;;;7.91;83.32;100830.05;1824439;79;21132;-58
2022/02/02 07:32:26;;;;;;;4.90;2.85;;;;;;;7.94;84.62;100832.60;1822494;78;21094;-58
2022/02/02 07:35:04;;;;;;;7.25;3.10;;;;;;;7.94;84.30;100829.98;1816189;78;21062;-58
2022/02/02 07:37:34;;;;;;;8.38;3.80;;;;;;;7.94;84.24;100833.91;1802067;79;21572;-58
2022/02/02 07:40:05;;;;;;;7.35;3.47;;;;;;;7.96;84.32;100842.59;1803263;79;21188;-58
2022/02/02 07:42:34;;;;;;;4.78;2.90;;;;;;;7.97;84.20;100841.70;1803269;79;21083;-58
2022/02/02 07:45:10;;;;;;;6.67;2.70;;;;;;;8.01;85.13;100831.54;1803288;79;21108;-58
2022/02/02 07:47:45;;;;;;;5.45;3.10;;;;;;;8.02;85.62;100828.03;1803431;79;21169;-58
2022/02/02 07:50:15;;;;;;;6.55;2.92;;;;;;;8.01;85.43;100831.54;1803120;79;21542;-58
2022/02/02 07:52:45;;;;;;;6.03;2.72;;;;;;;8.02;85.73;100831.97;1793282;78;21090;-58
2022/02/02 07:55:15;;;;;;;5.65;3.10;;;;;;;8.01;86.29;100835.47;1792676;80;21046;-59
2022/02/02 07:57:46;;;;;;;6.58;2.92;;;;;;;7.97;86.17;100827.28;1792675;80;21461;-58
2022/02/02 08:00:22;;;;;;;4.35;2.17;;;;;;;7.96;86.46;100837.81;1792604;80;21563;-58
2022/02/02 08:05:21;;;;;;;8.68;3.70;;;;;;;7.90;87.12;100848.01;1792735;80;21521;-59
2022/02/02 08:10:25;;;;;;;7.15;2.77;;;;;;;7.81;87.80;100859.59;1792851;80;21490;-58
2022/02/02 08:13:08;;;;;;;4.95;2.30;;;;;;;7.78;88.44;100849.17;1792706;80;21360;-58
2022/02/02 08:15:33;;;;;;;6.30;3.58;;;;;;;7.74;88.78;100871.13;1791580;80;21059;-58
2022/02/02 08:18:01;;;;;;;5.92;3.22;;;;;;;7.66;88.94;100879.19;1792560;80;21141;-58
2022/02/02 08:20:30;;;;;;;8.45;3.08;;;;;;;7.64;89.52;100899.33;1792614;80;21181;-58
2022/02/02 08:22:59;;;;;;;6.03;3.55;;;;;;;7.59;89.78;100900.34;1792660;80;21496;-58
2022/02/02 08:25:30;;;;;;;5.78;2.40;;;;;;;7.54;89.92;100907.87;1792769;80;21544;-59
2022/02/02 08:28:01;;;;;;;5.90;3.05;;;;;;;7.50;90.18;100906.20;1792661;80;21144;-58
2022/02/02 08:30:31;;;;;;;6.40;2.92;;;;;;;7.47;90.46;100904.09;1792579;80;21133;-58
2022/02/02 08:33:02;;;;;;;5.83;2.98;;;;;;;7.40;90.81;100903.86;1792615;80;21050;-58
2022/02/02 08:35:48;;;;;;;8.10;2.70;;;;;;;7.33;90.76;100896.12;1811500;79;21035;-58
2022/02/02 08:38:35;;;;;;;4.67;2.67;;;;;;;7.27;91.18;100910.67;1821542;79;21091;-58
2022/02/02 08:40:55;;;;;;;5.42;2.62;;;;;;;7.21;91.58;100905.59;1819329;79;21168;-60
2022/02/02 08:43:25;;;;;;;3.72;1.92;;;;;;;7.12;92.02;100908.41;1821410;79;21220;-58
2022/02/02 08:45:50;;;;;;;4.33;2.47;;;;;;;7.04;92.31;100899.84;1821425;79;21074;-58
2022/02/02 08:48:43;;;;;;;6.33;3.10;;;;;;;7.01;92.53;100901.21;1822124;79;21505;-58
2022/02/02 08:51:14;;;;;;;4.75;2.02;;;;;;;7.03;92.75;100894.21;1853496;76;21545;-58
2022/02/02 08:53:56;;;;;;;6.53;2.67;;;;;;;7.07;92.91;100898.48;1853135;77;21114;-58
2022/02/02 08:58:59;;;;;;;6.20;2.62;;;;;;;7.09;93.24;100886.20;1853530;77;21439;-58
2022/02/02 09:01:25;;;;;;;7.30;2.40;;;;;;;7.09;93.41;100882.28;1852386;76;21015;-58
2022/02/02 09:06:38;;;;;;;3.77;2.37;;;;;;;7.10;93.60;100867.85;1853508;77;21046;-58
2022/02/02 09:09:12;;;;;;;6.08;2.17;;;;;;;7.12;93.64;100866.52;1853518;77;21510;-58
2022/02/02 09:20:13;;;;;;;6.33;2.62;;;;;;;7.14;93.90;100824.98;1853596;77;21027;-58
2022/02/02 09:25:26;;;;;;;3.85;2.12;;;;;;;7.22;94.11;100812.16;1853528;77;21445;-58
2022/02/02 09:33:52;;;;;;;5.92;3.00;;;;;;;7.43;94.54;100797.66;1853733;77;21118;-58
2022/02/02 09:36:00;;;;;;;6.08;3.02;;;;;;;7.57;94.57;100798.17;1856344;77;21052;-57
2022/02/02 09:38:29;;;;;;;8.78;3.60;;;;;;;7.73;94.61;100785.09;1898672;75;21440;-58
2022/02/02 09:43:49;;;;;;;5.95;2.80;;;;;;;8.14;94.11;100816.79;1898694;75;21453;-58
2022/02/02 09:46:21;;;;;;;9.58;4.08;;;;;;;8.27;94.02;100811.14;1898721;75;21026;-58
2022/02/02 09:48:52;;;;;;;10.32;4.30;;;;;;;8.34;93.44;100814.47;1898303;75;21030;-58
2022/02/02 09:51:26;;;;;;;7.28;3.50;;;;;;;8.41;93.17;100819.06;1898522;74;21128;-58
2022/02/02 09:53:58;;;;;;;6.90;3.15;;;;;;;8.42;93.13;100811.19;1897621;75;21061;-58
2022/02/02 09:57:01;;;;;;;8.85;3.52;;;;;;;8.37;92.98;100807.80;1897649;75;20999;-58
2022/02/02 10:13:25;;;;;;;6.47;3.15;;;;;;;8.27;92.09;100773.56;1898773;75;21058;-58
2022/02/02 10:15:54;;;;;;;8.08;3.58;;;;;;;8.34;92.04;100771.60;1898213;75;21050;-58
2022/02/02 10:18:29;;;;;;;5.45;3.75;;;;;;;8.45;92.14;100770.89;1898616;75;21136;-58
2022/02/02 10:20:59;;;;;;;5.65;3.10;;;;;;;8.55;91.99;100765.76;1898038;75;21034;-58
2022/02/02 10:23:30;;;;;;;7.05;3.47;;;;;;;8.60;89.96;100766.48;1898621;75;21504;-58
2022/02/02 10:26:14;;;;;;;6.80;3.12;;;;;;;8.74;89.38;100750.30;1898741;75;21128;-58
2022/02/02 10:28:43;;;;;;;9.50;3.25;;;;;;;8.96;89.54;100743.06;1871562;75;21488;-58
2022/02/02 10:31:12;;;;;;;6.62;3.37;;;;;;;9.20;88.80;100738.34;1898699;75;21096;-58
2022/02/02 10:33:41;;;;;;;7.78;3.55;;;;;;;9.39;87.23;100739.03;1898680;75;21481;-58
2022/02/02 10:36:20;;;;;;;8.55;3.87;;;;;;;9.64;86.61;100735.92;1898651;75;21516;-58
2022/02/02 10:39:08;;;;;;;9.25;4.62;;;;;;;9.91;85.14;100729.30;1898294;75;21506;-58
2022/02/02 10:41:53;;;;;;;8.20;4.00;;;;;;;10.21;83.15;100723.34;1898300;75;21023;-58
2022/02/02 10:44:25;;;;;;;6.70;3.55;;;;;;;10.60;81.98;100708.73;1898485;75;21105;-58
2022/02/02 10:47:05;;;;;;;8.38;3.25;;;;;;;10.90;81.83;100718.95;1898707;75;21559;-58
2022/02/02 10:49:50;;;;;;;5.15;3.02;;;;;;;10.89;80.42;100711.98;1897768;75;21559;-58
2022/02/02 10:52:23;;;;;;;7.33;3.52;;;;;;;10.69;80.36;100722.84;1895389;75;21151;-57
2022/02/02 10:55:00;;;;;;;6.03;3.37;;;;;;;10.39;80.56;100751.23;1900941;75;21100;-58
2022/02/02 10:57:31;;;;;;;5.05;2.72;;;;;;;10.11;80.94;100734.29;1899669;75;21086;-58
2022/02/02 11:08:02;;;;;;;4.42;2.83;;;;;;;9.34;82.32;100752.77;1904399;75;21034;-58
2022/02/02 11:10:33;;;;;;;5.03;3.17;;;;;;;9.24;82.61;100747.83;1904366;75;21493;-58
2022/02/02 11:13:03;;;;;;;4.83;2.75;;;;;;;9.16;82.84;100753.77;1904392;75;21108;-58
2022/02/02 11:15:38;;;;;;;7.25;2.62;;;;;;;9.12;83.45;100766.61;1904308;75;21191;-57
2022/02/02 11:18:12;;;;;;;5.35;2.45;;;;;;;9.09;83.75;100753.56;1897688;75;21066;-58
2022/02/02 11:20:41;;;;;;;6.95;4.05;;;;;;;9.03;83.67;100766.45;1904209;75;21430;-57
2022/02/02 11:23:10;;;;;;;6.37;2.50;;;;;;;8.98;83.70;100746.49;1904401;75;21026;-57
2022/02/02 11:25:51;;;;;;;6.10;3.30;;;;;;;8.90;83.56;100765.13;1904218;75;21534;-58
2022/02/02 11:28:32;;;;;;;8.28;2.75;;;;;;;8.84;84.02;100773.20;1903061;75;21579;-58
2022/02/02 11:31:10;;;;;;;5.92;2.70;;;;;;;8.82;85.11;100770.62;1903336;75;21046;-57
2022/02/02 11:33:57;;;;;;;6.10;2.33;;;;;;;8.79;84.87;100772.02;1904487;75;21039;-58
2022/02/02 11:36:34;;;;;;;4.47;1.77;;;;;;;8.76;85.35;100766.89;1872168;77;21136;-58
2022/02/02 11:39:06;;;;;;;6.17;3.02;;;;;;;8.73;85.51;100773.53;1872194;77;21058;-58
2022/02/02 11:41:48;;;;;;;7.03;3.00;;;;;;;8.71;85.60;100766.16;1872346;77;21543;-58
2022/02/02 11:44:19;;;;;;;5.42;2.05;;;;;;;8.70;86.02;100764.43;1870838;77;21022;-58
2022/02/02 11:49:31;;;;;;;7.62;1.90;;;;;;;8.63;85.39;100768.14;1872176;77;21066;-58
2022/02/02 11:52:03;;;;;;;5.42;2.62;;;;;;;8.64;85.93;100779.92;1847612;77;21093;-58
2022/02/02 11:54:35;;;;;;;3.15;2.27;;;;;;;8.60;84.74;100781.38;1834232;78;21053;-58
2022/02/02 11:57:25;;;;;;;6.78;2.30;;;;;;;8.61;85.74;100772.59;1834006;78;21183;-58
2022/02/02 12:08:28;;;;;;;4.75;2.47;;;;;;;8.50;86.42;100802.66;1834071;78;21062;-58
2022/02/02 12:44:54;;;;;;;3.10;1.98;;;;;;;8.30;88.23;100826.81;1859821;77;21056;-58
2022/02/02 12:57:59;;;;;;;5.20;2.80;;;;;;;8.30;86.79;100816.77;1844897;75;21042;-57
2022/02/02 13:03:11;;;;;;;5.67;2.72;;;;;;;8.25;86.76;100826.06;1898755;75;21124;-57
2022/02/02 13:05:45;;;;;;;6.90;2.35;;;;;;;8.28;86.69;100822.48;1898627;75;21501;-58
2022/02/02 13:08:14;;;;;;;7.95;3.30;;;;;;;8.28;86.37;100822.48;1898739;75;20990;-57
2022/02/02 13:10:43;;;;;;;10.30;3.62;;;;;;;8.29;85.95;100832.09;1898698;75;21008;-57
2022/02/02 13:13:20;;;;;;;5.70;2.40;;;;;;;8.31;86.51;100829.82;1898863;75;21082;-57
2022/02/02 13:15:53;;;;;;;9.48;3.20;;;;;;;8.27;85.79;100826.03;1897605;75;21031;-57
2022/02/02 13:21:03;;;;;;;8.30;4.50;;;;;;;8.27;86.49;100809.83;1898650;75;21110;-57
2022/02/02 13:26:22;;;;;;;3.72;2.45;;;;;;;8.27;86.47;100815.53;1898660;75;21015;-57
2022/02/02 13:28:56;;;;;;;7.80;2.95;;;;;;;8.25;86.37;100801.15;1898049;75;21006;-57
2022/02/02 13:31:37;;;;;;;5.83;2.80;;;;;;;8.26;86.37;100803.31;1897850;75;21488;-57
2022/02/02 13:34:06;;;;;;;5.53;3.27;;;;;;;8.27;86.52;100806.36;1897037;75;21026;-58
2022/02/02 13:37:00;;;;;;;5.08;2.35;;;;;;;8.27;85.72;100799.80;1866792;77;21041;-57
2022/02/02 13:42:45;;;;;;;8.03;3.15;;;;;;;8.29;85.76;100807.17;1866765;77;21488;-57
2022/02/02 13:45:36;;;;;;;5.25;2.67;;;;;;;8.28;86.32;100794.94;1864362;77;21120;-57
2022/02/02 14:01:39;;;;;;;5.97;2.75;;;;;;;8.21;86.19;100782.94;1883767;76;21074;-57
2022/02/02 14:09:30;;;;;;;6.25;2.60;;;;;;;8.22;84.82;100806.93;1883902;76;21180;-58
2022/02/02 14:31:26;;;;;;;4.67;3.10;;;;;;;8.22;84.98;100795.12;1904476;75;21437;-57
2022/02/02 14:34:04;;;;;;;4.10;1.95;;;;;;;8.20;84.38;100783.82;1904594;75;21048;-57
2022/02/02 14:36:33;;;;;;;6.62;2.80;;;;;;;8.17;84.22;100786.52;1872169;77;21000;-60
2022/02/02 14:46:41;;;;;;;3.85;2.47;;;;;;;8.17;85.29;100789.14;1872627;77;21499;-61
2022/02/02 14:49:15;;;;;;;8.00;3.22;;;;;;;8.17;85.50;100783.89;1872259;77;21133;-62
2022/02/02 14:52:02;;;;;;;4.58;2.33;;;;;;;8.17;84.87;100791.77;1872371;77;21024;-61
2022/02/02 15:32:18;;;;;;;7.17;2.72;;;;;;;8.04;85.99;100792.13;1889895;76;21046;-60
2022/02/02 15:34:55;;;;;;;5.33;2.77;;;;;;;8.05;86.37;100784.66;1889907;76;21014;-66
2022/02/02 15:37:25;;;;;;;5.08;2.35;;;;;;;8.05;86.60;100798.23;1889394;76;21026;-60
2022/02/02 15:40:14;;;;;;;3.65;2.27;;;;;;;8.05;86.61;100782.03;1889403;76;21096;-61
2022/02/02 15:42:44;;;;;;;3.60;2.20;;;;;;;8.07;86.64;100793.33;1881020;76;21169;-58
2022/02/02 15:58:44;;;;;;;5.78;2.72;;;;;;;8.17;86.82;100798.33;1857757;77;21021;-64
2022/02/02 16:03:56;;;;;;;5.05;2.72;;;;;;;8.17;85.31;100800.95;1838398;77;21106;-63
2022/02/02 16:06:26;;;;;;;5.58;3.10;;;;;;;8.16;84.98;100801.87;1858025;77;21049;-64
2022/02/02 16:09:15;;;;;;;5.58;2.37;;;;;;;8.16;85.44;100800.09;1857882;77;21025;-60
2022/02/02 16:11:30;;;;;;;5.78;3.02;;;;;;;8.18;85.46;100792.19;1854360;77;21060;-59
2022/02/02 16:14:03;;;;;;;6.95;2.80;;;;;;;8.19;84.69;100798.70;1857991;77;21139;-63
2022/02/02 16:19:16;;;;;;;5.12;2.85;;;;;;;8.22;84.80;100796.44;1858061;77;21460;-60
2022/02/02 16:38:09;;;;;;;8.30;3.00;;;;;;;8.22;86.11;100798.59;1893505;76;21025;-60
2022/02/02 16:40:37;;;;;;;5.08;2.98;;;;;;;8.25;84.85;100797.67;1892831;76;21182;-62
2022/02/02 16:43:15;;;;;;;6.00;2.77;;;;;;;8.29;85.31;100799.30;1893345;76;21083;-62
2022/02/02 16:45:47;;;;;;;5.50;2.42;;;;;;;8.34;84.92;100802.66;1893282;76;21596;-61
2022/02/02 16:48:17;;;;;;;5.37;2.58;;;;;;;8.41;85.33;100791.09;1893429;76;21026;-61
2022/02/02 16:50:50;;;;;;;4.37;2.27;;;;;;;8.40;85.46;100793.28;1893143;76;20997;-61
2022/02/02 17:31:21;;;;;;;5.15;2.98;;;;;;;8.69;84.13;100769.30;1857892;77;21005;-60
2022/02/02 17:33:55;;;;;;;7.28;2.58;;;;;;;8.69;83.02;100775.39;1856972;77;21044;-60
2022/02/02 17:36:36;;;;;;;7.58;2.62;;;;;;;8.73;84.09;100788.44;1852906;77;21089;-61
2022/02/02 17:39:12;;;;;;;5.25;2.70;;;;;;;8.74;84.21;100780.48;1853175;77;21129;-62
2022/02/02 18:03:55;;;;;;;3.95;1.50;;;;;;;9.47;79.60;100765.89;1889818;76;21508;-60
2022/02/02 18:22:34;;;;;;;4.78;2.17;;;;;;;9.37;79.03;100746.08;1827763;76;21135;-60
2022/02/02 18:27:48;;;;;;;4.47;2.33;;;;;;;9.30;79.62;100740.66;1889740;76;21010;-64
2022/02/02 18:30:24;;;;;;;6.50;2.00;;;;;;;9.31;80.17;100752.86;1888173;75;21183;-63
2022/02/02 18:32:58;;;;;;;4.70;1.90;;;;;;;9.30;80.27;100757.73;1887711;75;20978;-64
2022/02/02 18:35:17;;;;;;;4.20;1.98;;;;;;;9.33;80.41;100761.55;1886734;76;21045;-67
2022/02/02 18:41:22;;;;;;;5.78;2.22;;;;;;;9.33;80.19;100757.61;1858846;75;21088;-66
2022/02/02 18:43:31;;;;;;;5.40;2.30;;;;;;;9.33;80.41;100773.38;1886108;76;21025;-61
2022/02/02 18:48:24;;;;;;;4.95;2.62;;;;;;;9.51;77.56;100755.67;1889775;76;21021;-62
2022/02/02 18:54:18;;;;;;;5.53;1.98;;;;;;;9.48;78.29;100751.85;1894306;75;21196;-62
2022/02/02 18:56:28;;;;;;;4.12;1.60;;;;;;;9.49;77.49;100742.19;1883688;74;21124;-62
2022/02/02 19:01:44;;;;;;;2.12;1.40;;;;;;;9.53;78.39;100739.85;1854640;75;21189;-61
2022/02/02 19:04:34;;;;;;;3.77;2.00;;;;;;;9.53;78.37;100743.33;1892402;75;21072;-63
2022/02/02 19:31:28;;;;;;;2.65;1.52;;;;;;;10.45;72.05;100735.20;1858025;77;21025;-62
2022/02/02 19:56:12;;;;;;;2.65;1.37;;;;;;;10.60;70.75;100753.05;1905248;75;21045;-61
2022/02/02 20:06:59;;;;;;;4.50;2.00;;;;;;;10.47;69.74;100749.16;1869229;76;21549;-61
2022/02/02 20:11:50;;;;;;;3.75;1.87;;;;;;;10.43;72.10;100752.36;1867642;76;21021;-61
2022/02/02 20:14:19;;;;;;;3.60;1.80;;;;;;;10.38;72.72;100745.13;1848857;76;21134;-60
2022/02/02 20:16:48;;;;;;;4.90;2.05;;;;;;;10.36;72.16;100750.88;1848820;77;21091;-60
2022/02/02 20:19:18;;;;;;;5.35;2.08;;;;;;;10.32;72.48;100752.38;1852598;76;21083;-60
2022/02/02 20:21:51;;;;;;;3.05;1.70;;;;;;;10.29;71.98;100748.07;1822708;77;21022;-62
2022/02/02 20:24:22;;;;;;;5.10;2.10;;;;;;;10.24;72.10;100735.08;1822473;78;21238;-62
2022/02/02 20:26:49;;;;;;;3.83;2.22;;;;;;;10.18;71.70;100742.33;1809012;79;21527;-60
2022/02/02 20:29:18;;;;;;;4.05;1.98;;;;;;;10.11;71.52;100748.77;1828100;78;21059;-60
2022/02/02 20:31:47;;;;;;;7.15;2.70;;;;;;;10.05;72.42;100734.03;1837298;77;21769;-60
2022/02/02 20:34:16;;;;;;;9.70;2.15;;;;;;;9.98;72.59;100738.68;1828118;77;21044;-59
2022/02/02 20:36:44;;;;;;;3.40;2.22;;;;;;;9.86;73.62;100749.17;1830561;77;21542;-60
2022/02/02 20:39:38;;;;;;;6.10;2.62;;;;;;;9.73;73.82;100701.03;1828017;77;21053;-60
2022/02/02 20:41:55;;;;;;;6.53;2.42;;;;;;;9.62;74.67;100743.01;1825849;77;21115;-60
2022/02/02 20:44:36;;;;;;;3.90;2.37;;;;;;;9.53;75.24;100742.02;1858353;76;21042;-63
2022/02/02 21:03:52;;;;;;;6.25;2.55;;;;;;;9.11;76.61;100689.16;1865224;77;21046;-62
2022/02/02 21:06:25;;;;;;;8.13;2.90;;;;;;;9.09;76.65;100691.84;1858871;76;21067;-58
2022/02/02 21:09:11;;;;;;;5.42;2.70;;;;;;;9.06;76.83;100703.78;1860844;76;21113;-59
2022/02/02 21:14:10;;;;;;;4.58;3.12;;;;;;;9.05;77.30;100698.96;1865302;77;21477;-58
2022/02/02 21:16:38;;;;;;;8.25;2.47;;;;;;;9.11;77.43;100692.67;1865038;77;21054;-58
2022/02/02 21:19:09;;;;;;;3.27;1.72;;;;;;;9.18;77.15;100674.45;1865154;77;21543;-58
2022/02/02 21:22:00;;;;;;;7.37;2.20;;;;;;;9.30;76.68;100669.71;1865256;77;21050;-60
2022/02/02 21:24:45;;;;;;;5.83;2.10;;;;;;;9.35;76.73;100657.24;1854718;76;21169;-60
2022/02/02 21:27:14;;;;;;;3.92;1.20;;;;;;;9.40;76.44;100657.95;1865876;76;21062;-61
2022/02/02 21:29:20;;;;;;;5.00;1.85;;;;;;;9.40;76.53;100653.54;1880160;76;21147;-60
2022/02/02 21:31:49;;;;;;;4.42;2.08;;;;;;;9.40;76.49;100654.85;1869737;76;21475;-60
2022/02/02 21:34:20;;;;;;;3.72;1.77;;;;;;;9.45;76.05;100677.05;1863436;77;21463;-61
2022/02/02 21:36:49;;;;;;;3.67;2.02;;;;;;;9.51;76.06;100668.93;1863753;77;21541;-60
2022/02/02 21:39:22;;;;;;;2.87;1.67;;;;;;;9.58;75.75;100646.77;1863479;77;21048;-60
2022/02/02 21:41:53;;;;;;;3.12;1.75;;;;;;;9.65;73.46;100673.24;1863730;77;21067;-60
2022/02/02 21:44:22;;;;;;;4.65;1.52;;;;;;;9.80;74.66;100679.71;1863553;77;21028;-60
2022/02/02 21:46:53;;;;;;;2.52;1.50;;;;;;;9.95;74.13;100696.70;1863516;77;21483;-61
2022/02/02 21:49:24;;;;;;;2.98;1.55;;;;;;;10.11;71.26;100688.25;1863602;77;21017;-61
2022/02/02 21:52:04;;;;;;;3.40;2.12;;;;;;;10.21;72.17;100700.12;1863535;77;21067;-60
2022/02/02 21:54:29;;;;;;;7.00;1.60;;;;;;;10.21;72.52;100699.66;1862767;77;20989;-60
2022/02/02 21:56:59;;;;;;;1.82;1.25;;;;;;;10.19;72.96;100703.27;1863581;77;21024;-60